Time;durP1;ratioP1;P1;durP2;ratioP2;P2;SDS_P1;SDS_P2;PMS_P1;PMS_P2;Temp;Humidity;BMP_temperature;BMP_pressure;BME280_temperature;BME280_humidity;BME280_pressure;Samples;Min_cycle;Max_cycle;Signal;HPM_P1;HPM_P2
2023/08/20 00:01:58;;;;;;;1999.90;999.90;;;19.70;74.70;;;;;;5088402;28;20024;-71
2023/08/20 00:04:26;;;;;;;1999.90;999.90;;;19.60;74.70;;;;;;5085828;28;20039;-71
2023/08/20 00:06:52;;;;;;;1999.90;999.90;;;19.60;74.10;;;;;;5088099;28;20070;-71
2023/08/20 00:09:18;;;;;;;1999.90;999.90;;;19.50;75.60;;;;;;5089202;28;20032;-71
2023/08/20 00:11:43;;;;;;;1999.90;999.90;;;19.40;76.40;;;;;;5087820;28;20039;-71
2023/08/20 00:14:16;;;;;;;1999.90;999.90;;;19.40;76.50;;;;;;5090613;28;20043;-71
2023/08/20 00:16:43;;;;;;;1999.90;999.90;;;19.30;76.30;;;;;;5089765;28;20072;-70
2023/08/20 00:19:10;;;;;;;1999.90;999.90;;;19.30;75.20;;;;;;5088890;28;20033;-70
2023/08/20 00:21:44;;;;;;;1999.90;999.90;;;19.40;75.60;;;;;;5087340;28;20085;-71
2023/08/20 00:24:10;;;;;;;1999.90;999.90;;;19.30;76.20;;;;;;5084162;28;20035;-71
2023/08/20 00:26:36;;;;;;;1999.90;999.90;;;19.30;76.60;;;;;;5083162;28;20036;-71
2023/08/20 00:29:02;;;;;;;1999.90;999.90;;;19.30;76.40;;;;;;5086107;28;20043;-71
2023/08/20 00:31:28;;;;;;;1999.90;999.90;;;19.30;75.20;;;;;;5093180;28;20036;-71
2023/08/20 00:33:53;;;;;;;1999.90;999.90;;;19.30;76.40;;;;;;5090398;28;20422;-71
2023/08/20 00:36:19;;;;;;;1999.90;999.90;;;19.30;76.60;;;;;;5093224;28;20077;-71
2023/08/20 00:38:44;;;;;;;1999.90;999.90;;;19.20;76.30;;;;;;5091266;28;20474;-70
2023/08/20 00:41:10;;;;;;;1999.90;999.90;;;19.20;76.10;;;;;;5089828;28;20537;-71
2023/08/20 00:43:36;;;;;;;1999.90;999.90;;;19.20;76.70;;;;;;5091144;28;20036;-71
2023/08/20 00:46:01;;;;;;;1999.90;999.90;;;19.10;77.30;;;;;;5090747;28;20128;-71
2023/08/20 00:48:27;;;;;;;1999.90;999.90;;;19.00;78.00;;;;;;5092103;28;20042;-71
2023/08/20 00:50:53;;;;;;;1999.90;999.90;;;18.90;77.70;;;;;;5092721;28;20059;-71
2023/08/20 00:53:18;;;;;;;1999.90;999.90;;;18.90;77.50;;;;;;5092369;28;20045;-71
2023/08/20 00:55:44;;;;;;;1999.90;999.90;;;18.90;76.90;;;;;;5091799;28;20123;-71
2023/08/20 00:58:11;;;;;;;1999.90;999.90;;;19.00;76.60;;;;;;5088577;28;20367;-71
2023/08/20 01:00:36;;;;;;;1999.90;999.90;;;19.00;76.40;;;;;;5088995;28;20160;-71
2023/08/20 01:03:02;;;;;;;1999.90;999.90;;;19.00;76.20;;;;;;5090710;28;20055;-71
2023/08/20 01:05:35;;;;;;;1999.90;999.90;;;18.90;76.10;;;;;;5089555;28;20050;-71
2023/08/20 01:08:37;;;;;;;1999.90;999.90;;;18.90;76.40;;;;;;5088462;28;20043;-71
2023/08/20 01:11:24;;;;;;;1999.90;999.90;;;18.80;76.40;;;;;;5090437;28;20063;-70
2023/08/20 01:13:50;;;;;;;1999.90;999.90;;;18.80;77.10;;;;;;5091605;28;20024;-70
2023/08/20 01:16:16;;;;;;;1999.90;999.90;;;18.80;77.30;;;;;;5089977;28;20496;-71
2023/08/20 01:18:41;;;;;;;1999.90;999.90;;;18.70;77.40;;;;;;5092144;28;20036;-71
2023/08/20 01:21:27;;;;;;;1999.90;999.90;;;18.70;78.00;;;;;;5091759;28;20036;-71
2023/08/20 01:24:08;;;;;;;1999.90;999.90;;;18.70;78.00;;;;;;5092056;28;20402;-72
2023/08/20 01:26:56;;;;;;;1999.90;999.90;;;18.70;78.50;;;;;;5089711;28;20035;-71
2023/08/20 01:29:22;;;;;;;1999.90;999.90;;;18.70;79.20;;;;;;5091910;28;20279;-71
2023/08/20 01:31:48;;;;;;;1999.90;999.90;;;18.70;79.60;;;;;;5083897;28;20024;-71
2023/08/20 01:34:14;;;;;;;1999.90;999.90;;;18.70;79.40;;;;;;5091012;28;20061;-71
2023/08/20 01:36:40;;;;;;;1999.90;999.90;;;18.60;79.40;;;;;;5091226;28;20031;-71
2023/08/20 01:39:05;;;;;;;1999.90;999.90;;;18.60;79.90;;;;;;5082664;28;20083;-71
2023/08/20 01:41:31;;;;;;;1999.90;999.90;;;18.50;80.40;;;;;;5086633;28;20500;-71
2023/08/20 01:43:57;;;;;;;1999.90;999.90;;;18.50;81.10;;;;;;5089198;28;20039;-70
2023/08/20 01:46:22;;;;;;;1999.90;999.90;;;18.50;80.40;;;;;;5084214;28;20039;-71
2023/08/20 01:48:48;;;;;;;1999.90;999.90;;;18.50;80.50;;;;;;5082164;28;20020;-71
2023/08/20 01:51:13;;;;;;;1999.90;999.90;;;18.70;80.40;;;;;;5085725;28;20724;-70
2023/08/20 01:53:39;;;;;;;1999.90;999.90;;;18.60;80.40;;;;;;5090742;28;20056;-71
2023/08/20 01:56:11;;;;;;;1999.90;999.90;;;18.70;79.70;;;;;;5075857;28;20102;-70
2023/08/20 01:58:36;;;;;;;1999.90;999.90;;;18.60;80.40;;;;;;5080490;28;20016;-71
2023/08/20 02:01:02;;;;;;;1999.90;999.90;;;18.60;80.20;;;;;;5086235;28;20036;-71
2023/08/20 02:03:28;;;;;;;1999.90;999.90;;;18.60;80.70;;;;;;5080551;28;20036;-71
2023/08/20 02:05:54;;;;;;;1999.90;999.90;;;18.50;80.80;;;;;;5094790;28;20082;-70
2023/08/20 02:08:20;;;;;;;1999.90;999.90;;;18.50;80.70;;;;;;5086831;28;20032;-70
2023/08/20 02:10:46;;;;;;;1999.90;999.90;;;18.40;81.50;;;;;;5090179;28;20078;-71
2023/08/20 02:13:11;;;;;;;1999.90;999.90;;;18.30;82.20;;;;;;5092979;28;20049;-71
2023/08/20 02:15:37;;;;;;;1999.90;999.90;;;18.30;82.40;;;;;;5091334;28;20028;-71
2023/08/20 02:18:03;;;;;;;1999.90;999.90;;;18.30;82.40;;;;;;5090543;28;20029;-71
2023/08/20 02:20:29;;;;;;;1999.90;999.90;;;18.30;82.60;;;;;;5087237;28;20035;-72
2023/08/20 02:22:54;;;;;;;1999.90;999.90;;;18.30;82.00;;;;;;5087162;28;20085;-71
2023/08/20 02:25:20;;;;;;;1999.90;999.90;;;18.30;83.10;;;;;;5088782;28;20081;-71
2023/08/20 02:27:45;;;;;;;1999.90;999.90;;;18.30;82.60;;;;;;5088196;28;20044;-71
2023/08/20 02:30:13;;;;;;;1999.90;999.90;;;18.30;82.70;;;;;;5091913;28;20028;-71
2023/08/20 02:32:39;;;;;;;1999.90;999.90;;;18.30;82.70;;;;;;5090435;28;20049;-71
2023/08/20 02:35:05;;;;;;;1999.90;999.90;;;18.30;82.60;;;;;;5087594;28;20434;-72
2023/08/20 02:37:32;;;;;;;1999.90;999.90;;;18.20;83.30;;;;;;5091684;28;20590;-72
2023/08/20 02:39:57;;;;;;;1999.90;999.90;;;18.20;83.10;;;;;;5091017;28;20040;-72
2023/08/20 02:42:23;;;;;;;1999.90;999.90;;;18.10;83.20;;;;;;5091294;28;20032;-73
2023/08/20 02:44:49;;;;;;;1999.90;999.90;;;18.10;83.70;;;;;;5090624;28;20114;-72
2023/08/20 02:47:15;;;;;;;1999.90;999.90;;;18.00;83.70;;;;;;5094657;28;20127;-72
2023/08/20 02:49:40;;;;;;;1999.90;999.90;;;18.00;84.00;;;;;;5089351;28;20142;-72
2023/08/20 02:52:06;;;;;;;1999.90;999.90;;;18.10;84.10;;;;;;5089655;28;20040;-72
2023/08/20 02:54:32;;;;;;;1999.90;999.90;;;18.10;83.60;;;;;;5088757;28;20398;-73
2023/08/20 02:56:59;;;;;;;1999.90;999.90;;;18.10;83.50;;;;;;5089256;28;20032;-73
2023/08/20 02:59:25;;;;;;;1999.90;999.90;;;18.10;83.40;;;;;;5088770;28;20067;-73
2023/08/20 03:01:51;;;;;;;1999.90;999.90;;;18.00;83.70;;;;;;5090956;28;20055;-73
2023/08/20 03:04:16;;;;;;;1999.90;999.90;;;17.90;84.90;;;;;;5088092;28;20694;-73
2023/08/20 03:06:42;;;;;;;1999.90;999.90;;;17.90;84.90;;;;;;5090145;28;20056;-73
2023/08/20 03:09:08;;;;;;;1999.90;999.90;;;17.90;84.90;;;;;;5086980;28;20127;-73
2023/08/20 03:11:33;;;;;;;1999.90;999.90;;;17.90;84.70;;;;;;5087431;28;20068;-73
2023/08/20 03:13:59;;;;;;;1999.90;999.90;;;17.90;84.40;;;;;;5087241;28;20067;-73
2023/08/20 03:16:25;;;;;;;1999.90;999.90;;;17.80;84.90;;;;;;5086971;28;20123;-73
2023/08/20 03:18:50;;;;;;;1999.90;999.90;;;17.80;85.00;;;;;;5089867;28;20032;-73
2023/08/20 03:21:16;;;;;;;1999.90;999.90;;;17.80;84.90;;;;;;5089952;28;20039;-73
2023/08/20 03:23:42;;;;;;;1999.90;999.90;;;17.80;84.90;;;;;;5086412;28;20383;-72
2023/08/20 03:26:07;;;;;;;1999.90;999.90;;;17.80;85.20;;;;;;5089475;28;20115;-72
2023/08/20 03:28:33;;;;;;;1999.90;999.90;;;17.80;85.30;;;;;;5090898;28;20096;-72
2023/08/20 03:31:02;;;;;;;1999.90;999.90;;;17.90;84.60;;;;;;5088666;28;20036;-73
2023/08/20 03:33:27;;;;;;;1999.90;999.90;;;17.80;84.40;;;;;;5088605;28;20058;-72
2023/08/20 03:35:53;;;;;;;1999.90;999.90;;;17.80;84.20;;;;;;5088147;28;20064;-73
2023/08/20 03:38:19;;;;;;;1999.90;999.90;;;17.80;84.30;;;;;;5085738;28;20027;-72
2023/08/20 03:40:45;;;;;;;1999.90;999.90;;;17.80;84.40;;;;;;5087581;28;20041;-72
2023/08/20 03:43:10;;;;;;;1999.90;999.90;;;17.90;84.60;;;;;;5087602;28;20032;-72
2023/08/20 03:45:36;;;;;;;1999.90;999.90;;;17.80;85.30;;;;;;5087491;28;20112;-72
2023/08/20 03:48:02;;;;;;;1999.90;999.90;;;17.70;85.80;;;;;;5089474;28;20036;-72
2023/08/20 03:50:27;;;;;;;1999.90;999.90;;;17.80;85.50;;;;;;5087221;28;20032;-73
2023/08/20 03:52:53;;;;;;;1999.90;999.90;;;17.70;85.50;;;;;;5087557;28;20110;-74
2023/08/20 03:55:19;;;;;;;1999.90;999.90;;;17.70;85.30;;;;;;5081894;28;20550;-73
2023/08/20 03:57:45;;;;;;;1999.90;999.90;;;17.70;85.40;;;;;;5086667;28;20036;-72
2023/08/20 04:00:12;;;;;;;1999.90;999.90;;;17.80;84.80;;;;;;5089323;28;20036;-72
2023/08/20 04:02:38;;;;;;;1999.90;999.90;;;17.80;85.80;;;;;;5089882;28;20043;-72
2023/08/20 04:05:04;;;;;;;1999.90;999.90;;;17.70;86.60;;;;;;5089146;28;20044;-72
2023/08/20 04:07:30;;;;;;;1999.90;999.90;;;17.70;87.20;;;;;;5092618;28;20031;-73
2023/08/20 04:09:55;;;;;;;1999.90;999.90;;;17.70;88.20;;;;;;5091812;28;20032;-73
2023/08/20 04:12:21;;;;;;;1999.90;999.90;;;17.70;87.60;;;;;;5092671;28;20032;-72
2023/08/20 04:14:47;;;;;;;1999.90;999.90;;;17.60;87.50;;;;;;5093737;28;20214;-73
2023/08/20 04:17:12;;;;;;;1999.90;999.90;;;17.60;87.40;;;;;;5091208;28;20783;-73
2023/08/20 04:19:38;;;;;;;1999.90;999.90;;;17.60;87.50;;;;;;5091984;28;20424;-73
2023/08/20 04:22:04;;;;;;;1999.90;999.90;;;17.50;87.50;;;;;;5089154;28;20371;-72
2023/08/20 04:24:29;;;;;;;1999.90;999.90;;;17.50;87.50;;;;;;5091132;28;20493;-73
2023/08/20 04:26:55;;;;;;;1999.90;999.90;;;17.50;87.80;;;;;;5092989;28;20414;-73
2023/08/20 04:29:20;;;;;;;1999.90;999.90;;;17.50;87.80;;;;;;5095619;28;20032;-72
2023/08/20 04:31:46;;;;;;;1999.90;999.90;;;17.40;87.90;;;;;;5093204;28;20064;-73
2023/08/20 04:34:12;;;;;;;1999.90;999.90;;;17.50;87.60;;;;;;5093159;28;20784;-73
2023/08/20 04:36:37;;;;;;;1999.90;999.90;;;17.50;87.30;;;;;;5088349;28;20504;-73
2023/08/20 04:39:04;;;;;;;1999.90;999.90;;;17.50;87.40;;;;;;5093242;28;20036;-73
2023/08/20 04:41:30;;;;;;;1999.90;999.90;;;17.50;87.60;;;;;;5090181;28;20402;-72
2023/08/20 04:43:55;;;;;;;1999.90;999.90;;;17.60;87.70;;;;;;5092497;28;20115;-73
2023/08/20 04:46:21;;;;;;;1999.90;999.90;;;17.70;87.00;;;;;;5092256;28;20050;-72
2023/08/20 04:48:47;;;;;;;1999.90;999.90;;;17.70;87.20;;;;;;5092565;28;20120;-73
2023/08/20 04:51:12;;;;;;;1999.90;999.90;;;17.60;87.20;;;;;;5090713;28;20115;-72
2023/08/20 04:53:38;;;;;;;1999.90;999.90;;;17.50;88.00;;;;;;5091856;28;20435;-73
2023/08/20 04:56:04;;;;;;;1999.90;999.90;;;17.40;88.50;;;;;;5089675;28;20590;-73
2023/08/20 04:58:29;;;;;;;1999.90;999.90;;;17.50;88.40;;;;;;5090125;28;20040;-73
2023/08/20 05:00:55;;;;;;;1999.90;999.90;;;17.60;88.40;;;;;;5072085;28;20028;-72
2023/08/20 05:03:20;;;;;;;1999.90;999.90;;;17.50;88.50;;;;;;5090484;28;20047;-72
2023/08/20 05:05:50;;;;;;;1999.90;999.90;;;17.70;88.60;;;;;;5090023;28;20032;-73
2023/08/20 05:08:16;;;;;;;1999.90;999.90;;;17.70;88.40;;;;;;5093545;28;20568;-73
2023/08/20 05:10:42;;;;;;;1999.90;999.90;;;17.80;88.20;;;;;;5091798;28;20024;-73
2023/08/20 05:13:08;;;;;;;1999.90;999.90;;;17.90;87.70;;;;;;5093456;28;20059;-72
2023/08/20 05:15:34;;;;;;;1999.90;999.90;;;17.90;87.60;;;;;;5089305;28;20062;-73
2023/08/20 05:18:00;;;;;;;1999.90;999.90;;;18.00;87.60;;;;;;5090190;28;20067;-73
2023/08/20 05:20:25;;;;;;;1999.90;999.90;;;18.10;87.60;;;;;;5085986;28;20020;-72
2023/08/20 05:22:51;;;;;;;1999.90;999.90;;;18.20;87.40;;;;;;5084621;28;20462;-72
2023/08/20 05:25:17;;;;;;;1999.90;999.90;;;18.30;86.90;;;;;;5089139;28;20433;-72
2023/08/20 05:27:42;;;;;;;1999.90;999.90;;;18.30;86.70;;;;;;5080511;28;20502;-72
2023/08/20 05:30:08;;;;;;;1999.90;999.90;;;18.40;86.30;;;;;;5083743;28;20036;-72
2023/08/20 05:32:34;;;;;;;1999.90;999.90;;;18.40;86.00;;;;;;5087054;28;20032;-72
2023/08/20 05:35:00;;;;;;;1999.90;999.90;;;18.50;86.00;;;;;;5084105;28;20148;-72
2023/08/20 05:37:25;;;;;;;1999.90;999.90;;;18.60;85.60;;;;;;5078522;28;20115;-72
2023/08/20 05:39:51;;;;;;;1999.90;999.90;;;18.70;85.20;;;;;;5084890;28;20023;-72
2023/08/20 05:42:17;;;;;;;1999.90;999.90;;;18.80;85.30;;;;;;5090210;28;20092;-72
2023/08/20 05:44:42;;;;;;;1999.90;999.90;;;18.80;85.10;;;;;;5087091;28;20115;-72
2023/08/20 05:47:08;;;;;;;1999.90;999.90;;;18.90;86.30;;;;;;5086312;28;20051;-73
2023/08/20 05:49:33;;;;;;;1999.90;999.90;;;18.90;85.60;;;;;;5085566;28;20032;-72
2023/08/20 05:51:59;;;;;;;1999.90;999.90;;;19.00;85.00;;;;;;5084107;28;20115;-72
2023/08/20 05:54:25;;;;;;;1999.90;999.90;;;19.20;84.80;;;;;;5082165;28;20528;-72
2023/08/20 05:56:50;;;;;;;1999.90;999.90;;;19.30;84.60;;;;;;5084865;28;20099;-70
2023/08/20 05:59:16;;;;;;;1999.90;999.90;;;19.50;84.50;;;;;;5083920;28;20053;-70
2023/08/20 06:01:43;;;;;;;1999.90;999.90;;;19.60;84.20;;;;;;5077627;28;20043;-72
2023/08/20 06:04:09;;;;;;;1999.90;999.90;;;19.80;83.90;;;;;;5084507;28;20032;-70
2023/08/20 06:06:35;;;;;;;1999.90;999.90;;;19.90;83.80;;;;;;5086791;28;20030;-70
2023/08/20 06:09:00;;;;;;;1999.90;999.90;;;20.00;83.40;;;;;;5089995;28;20028;-69
2023/08/20 06:11:26;;;;;;;1999.90;999.90;;;20.20;83.00;;;;;;5091804;28;20048;-70
2023/08/20 06:13:52;;;;;;;1999.90;999.90;;;20.30;82.90;;;;;;5091934;28;20035;-69
2023/08/20 06:16:17;;;;;;;1999.90;999.90;;;20.40;81.90;;;;;;5088174;28;20463;-70
2023/08/20 06:18:43;;;;;;;1999.90;999.90;;;20.60;81.40;;;;;;5086412;28;20024;-69
2023/08/20 06:21:09;;;;;;;1999.90;999.90;;;20.70;81.30;;;;;;5090725;28;20089;-70
2023/08/20 06:23:34;;;;;;;1999.90;999.90;;;20.80;82.50;;;;;;5087955;28;20078;-70
2023/08/20 06:26:00;;;;;;;1999.90;999.90;;;20.90;81.40;;;;;;5077374;28;20041;-70
2023/08/20 06:28:25;;;;;;;1999.90;999.90;;;21.00;81.50;;;;;;5080597;28;20050;-70
2023/08/20 06:30:51;;;;;;;1999.90;999.90;;;21.10;81.00;;;;;;5077916;28;20032;-70
2023/08/20 06:33:17;;;;;;;1999.90;999.90;;;21.10;80.50;;;;;;5089179;28;20032;-70
2023/08/20 06:35:42;;;;;;;1999.90;999.90;;;21.30;81.00;;;;;;5089748;28;20044;-70
2023/08/20 06:38:08;;;;;;;1999.90;999.90;;;21.40;81.00;;;;;;5090536;28;20710;-70
2023/08/20 06:40:34;;;;;;;1999.90;999.90;;;21.60;80.10;;;;;;5090840;28;20725;-70
2023/08/20 06:42:59;;;;;;;1999.90;999.90;;;21.60;79.80;;;;;;5088001;28;20478;-70
2023/08/20 06:45:25;;;;;;;1999.90;999.90;;;21.70;80.00;;;;;;5090965;28;20028;-70
2023/08/20 06:47:51;;;;;;;1999.90;999.90;;;21.90;79.70;;;;;;5085063;28;20035;-70
2023/08/20 06:50:16;;;;;;;1999.90;999.90;;;21.90;78.90;;;;;;5090045;28;20494;-70
2023/08/20 06:52:42;;;;;;;1999.90;999.90;;;22.10;77.80;;;;;;5087166;28;20036;-71
2023/08/20 06:55:08;;;;;;;1999.90;999.90;;;22.00;77.20;;;;;;5089185;28;20039;-71
2023/08/20 06:57:34;;;;;;;1999.90;999.90;;;22.10;79.50;;;;;;5087830;28;20027;-70
2023/08/20 07:00:00;;;;;;;1999.90;999.90;;;22.10;79.30;;;;;;5090195;28;20031;-69
2023/08/20 07:02:26;;;;;;;1999.90;999.90;;;22.30;78.10;;;;;;5089335;28;20029;-69
2023/08/20 07:04:51;;;;;;;1999.90;999.90;;;22.40;78.00;;;;;;5100310;28;20063;-70
2023/08/20 07:07:17;;;;;;;1999.90;999.90;;;22.50;77.10;;;;;;5096020;28;20035;-70
2023/08/20 07:09:43;;;;;;;1999.90;999.90;;;22.50;76.50;;;;;;5090462;28;20089;-70
2023/08/20 07:12:09;;;;;;;1999.90;999.90;;;22.70;76.90;;;;;;5087110;28;20039;-71
2023/08/20 07:14:34;;;;;;;1999.90;999.90;;;22.80;75.50;;;;;;5088552;28;20032;-70
2023/08/20 07:17:02;;;;;;;1999.90;999.90;;;22.80;74.30;;;;;;5082705;28;20067;-70
2023/08/20 07:19:28;;;;;;;1999.90;999.90;;;23.00;74.90;;;;;;5088466;28;20024;-70
2023/08/20 07:21:54;;;;;;;1999.90;999.90;;;23.10;74.20;;;;;;5088804;28;20059;-70
2023/08/20 07:24:25;;;;;;;1999.90;999.90;;;23.20;73.50;;;;;;5089817;28;20055;-72
2023/08/20 07:26:51;;;;;;;1999.90;999.90;;;23.10;75.40;;;;;;5088662;28;20071;-70
2023/08/20 07:29:17;;;;;;;1999.90;999.90;;;23.10;73.60;;;;;;5090277;28;20020;-70
2023/08/20 07:31:42;;;;;;;1999.90;999.90;;;23.20;74.70;;;;;;5087831;28;20035;-70
2023/08/20 07:34:08;;;;;;;1999.90;999.90;;;23.40;72.70;;;;;;5088261;28;20040;-70
2023/08/20 07:36:34;;;;;;;1999.90;999.90;;;23.60;71.00;;;;;;5087819;28;20069;-70
2023/08/20 07:39:00;;;;;;;1999.90;999.90;;;23.70;69.40;;;;;;5086935;28;20032;-70
2023/08/20 07:41:26;;;;;;;1999.90;999.90;;;23.90;70.70;;;;;;5089697;28;20453;-70
2023/08/20 07:43:52;;;;;;;1999.90;999.90;;;23.90;70.70;;;;;;5087732;28;20051;-70
2023/08/20 07:46:19;;;;;;;1999.90;999.90;;;24.20;70.50;;;;;;5087565;28;20035;-69
2023/08/20 07:48:45;;;;;;;1999.90;999.90;;;24.20;68.90;;;;;;5086997;28;20056;-70
2023/08/20 07:51:11;;;;;;;1999.90;999.90;;;24.20;68.90;;;;;;5081838;28;20510;-70
2023/08/20 07:53:37;;;;;;;1999.90;999.90;;;24.40;68.10;;;;;;5073295;28;20042;-70
2023/08/20 07:56:03;;;;;;;1999.90;999.90;;;24.50;66.80;;;;;;5078944;28;20036;-70
2023/08/20 07:58:29;;;;;;;1999.90;999.90;;;24.60;64.20;;;;;;5085462;28;20032;-70
2023/08/20 08:01:13;;;;;;;1999.90;999.90;;;24.70;66.90;;;;;;5087994;28;20528;-70
2023/08/20 08:03:40;;;;;;;1999.90;999.90;;;24.80;67.60;;;;;;5084197;28;20041;-70
2023/08/20 08:06:05;;;;;;;1999.90;999.90;;;24.90;66.50;;;;;;5081889;28;20028;-72
2023/08/20 08:08:31;;;;;;;1999.90;999.90;;;25.00;67.80;;;;;;5066488;28;20085;-72
2023/08/20 08:10:57;;;;;;;1999.90;999.90;;;25.20;65.00;;;;;;5080842;28;20032;-72
2023/08/20 08:13:23;;;;;;;1999.90;999.90;;;25.40;64.50;;;;;;5086083;28;20042;-73
2023/08/20 08:15:49;;;;;;;1999.90;999.90;;;25.60;64.10;;;;;;5084642;28;20040;-73
2023/08/20 08:18:15;;;;;;;1999.90;999.90;;;25.50;64.70;;;;;;5085825;28;20049;-73
2023/08/20 08:20:41;;;;;;;1999.90;999.90;;;25.70;64.90;;;;;;5089053;28;20032;-72
2023/08/20 08:23:07;;;;;;;1999.90;999.90;;;25.90;64.70;;;;;;5071026;28;20675;-72
2023/08/20 08:25:32;;;;;;;1999.90;999.90;;;25.90;65.20;;;;;;5086383;28;20079;-73
2023/08/20 08:27:58;;;;;;;1999.90;999.90;;;26.20;62.00;;;;;;5088702;28;20130;-73
2023/08/20 08:30:24;;;;;;;1999.90;999.90;;;26.30;60.00;;;;;;5086481;28;20039;-72
2023/08/20 08:32:50;;;;;;;1999.90;999.90;;;26.50;62.70;;;;;;5088583;28;20541;-72
2023/08/20 08:35:17;;;;;;;1999.90;999.90;;;26.50;62.10;;;;;;5084081;28;20044;-72
2023/08/20 08:37:42;;;;;;;1999.90;999.90;;;26.70;58.80;;;;;;5085421;28;20028;-72
2023/08/20 08:40:09;;;;;;;1999.90;999.90;;;26.70;58.70;;;;;;5089277;28;20359;-72
2023/08/20 08:42:34;;;;;;;1999.90;999.90;;;26.70;59.80;;;;;;5085781;28;20076;-73
2023/08/20 08:45:01;;;;;;;1999.90;999.90;;;26.60;61.90;;;;;;5085888;28;20040;-73
2023/08/20 08:47:27;;;;;;;1999.90;999.90;;;26.80;62.10;;;;;;5083694;28;20036;-72
2023/08/20 08:49:56;;;;;;;1999.90;999.90;;;27.10;59.80;;;;;;5100671;28;20092;-72
2023/08/20 08:52:23;;;;;;;1999.90;999.90;;;27.20;62.10;;;;;;5093966;28;20047;-72
2023/08/20 08:54:49;;;;;;;1999.90;999.90;;;27.40;58.60;;;;;;5091396;28;20036;-72
2023/08/20 08:57:15;;;;;;;1999.90;999.90;;;27.40;59.30;;;;;;5091189;28;20040;-72
2023/08/20 08:59:42;;;;;;;1999.90;999.90;;;27.50;58.10;;;;;;5091517;28;20024;-72
2023/08/20 09:02:09;;;;;;;1999.90;999.90;;;27.70;59.20;;;;;;5092008;28;20115;-72
2023/08/20 09:04:40;;;;;;;1999.90;999.90;;;27.20;57.00;;;;;;5085952;28;20042;-73
2023/08/20 09:07:10;;;;;;;1999.90;999.90;;;27.20;56.60;;;;;;5092019;28;20032;-73
2023/08/20 09:09:36;;;;;;;1999.90;999.90;;;27.60;57.90;;;;;;5092729;28;20028;-72
2023/08/20 09:12:13;;;;;;;1999.90;999.90;;;28.10;57.70;;;;;;5090894;28;20502;-72
2023/08/20 09:14:39;;;;;;;1999.90;999.90;;;28.20;58.40;;;;;;5089953;28;20032;-72
2023/08/20 09:17:04;;;;;;;1999.90;999.90;;;28.60;55.40;;;;;;5091529;28;20449;-72
2023/08/20 09:19:37;;;;;;;1999.90;999.90;;;28.80;56.60;;;;;;5092636;28;20032;-72
2023/08/20 09:22:03;;;;;;;1999.90;999.90;;;28.30;53.00;;;;;;5089486;28;20088;-72
2023/08/20 09:24:45;;;;;;;1999.90;999.90;;;28.50;52.90;;;;;;5091308;28;20028;-72
2023/08/20 09:27:12;;;;;;;1999.90;999.90;;;28.70;55.20;;;;;;5086652;28;20052;-72
2023/08/20 09:29:53;;;;;;;1999.90;999.90;;;28.90;53.30;;;;;;5088151;28;20028;-72
2023/08/20 09:32:24;;;;;;;1999.90;999.90;;;28.90;55.60;;;;;;5089004;28;20465;-70
2023/08/20 09:34:52;;;;;;;1999.90;999.90;;;28.90;52.20;;;;;;5091139;28;20768;-71
2023/08/20 09:37:19;;;;;;;1999.90;999.90;;;29.00;52.00;;;;;;5089338;28;20032;-71
2023/08/20 09:39:45;;;;;;;1999.90;999.90;;;29.10;55.50;;;;;;5088266;28;20547;-71
2023/08/20 09:42:13;;;;;;;1999.90;999.90;;;29.50;53.20;;;;;;5085796;28;20028;-71
2023/08/20 09:44:40;;;;;;;1999.90;999.90;;;29.50;53.10;;;;;;5089672;28;20028;-71
2023/08/20 09:47:15;;;;;;;1999.90;999.90;;;29.50;50.80;;;;;;5090036;28;20031;-72
2023/08/20 09:49:48;;;;;;;1999.90;999.90;;;29.70;52.40;;;;;;5089647;28;20093;-71
2023/08/20 09:52:34;;;;;;;1999.90;999.90;;;29.60;52.20;;;;;;5092696;28;20500;-70
2023/08/20 09:55:03;;;;;;;1999.90;999.90;;;29.60;51.70;;;;;;5086959;28;20139;-71
2023/08/20 09:57:40;;;;;;;1999.90;999.90;;;30.10;51.20;;;;;;5088884;28;20058;-71
2023/08/20 10:00:09;;;;;;;1999.90;999.90;;;30.10;52.00;;;;;;5087489;28;20039;-71
2023/08/20 10:02:36;;;;;;;1999.90;999.90;;;30.30;52.30;;;;;;5093246;28;20110;-70
2023/08/20 10:05:04;;;;;;;1999.90;999.90;;;30.30;50.50;;;;;;5091931;28;20093;-71
2023/08/20 10:07:33;;;;;;;1999.90;999.90;;;30.50;51.80;;;;;;5089224;28;20038;-71
2023/08/20 10:10:01;;;;;;;1999.90;999.90;;;30.60;51.50;;;;;;5089661;28;20028;-71
2023/08/20 10:12:30;;;;;;;1999.90;999.90;;;30.50;51.20;;;;;;5087843;28;20024;-71
2023/08/20 10:14:57;;;;;;;1999.90;999.90;;;30.70;49.90;;;;;;5087233;28;20036;-73
2023/08/20 10:17:29;;;;;;;1999.90;999.90;;;31.10;46.70;;;;;;5090182;28;20028;-71
2023/08/20 10:19:57;;;;;;;1999.90;999.90;;;31.20;48.80;;;;;;5087718;28;20474;-71
2023/08/20 10:22:22;;;;;;;1999.90;999.90;;;31.20;48.50;;;;;;5091083;28;20460;-71
2023/08/20 10:24:53;;;;;;;1999.90;999.90;;;31.20;46.00;;;;;;5087660;28;20028;-71
2023/08/20 10:27:32;;;;;;;1999.90;999.90;;;30.80;46.20;;;;;;5091914;28;20054;-71
2023/08/20 10:30:01;;;;;;;1999.90;999.90;;;31.20;45.00;;;;;;5086921;28;20497;-71
2023/08/20 10:32:50;;;;;;;1999.90;999.90;;;31.00;41.70;;;;;;5092125;28;20063;-71
2023/08/20 10:35:23;;;;;;;1999.90;999.90;;;31.20;41.50;;;;;;5091184;28;20036;-71
2023/08/20 10:38:18;;;;;;;1999.90;999.90;;;31.30;41.10;;;;;;5086279;28;20028;-72
2023/08/20 10:41:00;;;;;;;1999.90;999.90;;;31.30;41.60;;;;;;5088046;28;20120;-71
2023/08/20 10:43:25;;;;;;;1999.90;999.90;;;31.60;41.50;;;;;;5090026;28;20031;-71
2023/08/20 10:46:11;;;;;;;1999.90;999.90;;;31.60;40.40;;;;;;5088660;28;20073;-71
2023/08/20 10:48:39;;;;;;;1999.90;999.90;;;31.80;38.60;;;;;;5078082;28;20043;-71
2023/08/20 10:51:12;;;;;;;1999.90;999.90;;;31.80;39.00;;;;;;5086195;28;20064;-71
2023/08/20 10:53:39;;;;;;;1999.90;999.90;;;32.10;38.70;;;;;;5088854;28;20031;-71
2023/08/20 10:56:16;;;;;;;1999.90;999.90;;;32.50;38.10;;;;;;5087850;28;20382;-71
2023/08/20 10:58:44;;;;;;;1999.90;999.90;;;32.90;36.50;;;;;;5088994;28;20494;-71
2023/08/20 11:01:20;;;;;;;1999.90;999.90;;;33.10;38.00;;;;;;5089015;28;20060;-71
2023/08/20 11:03:48;;;;;;;1999.90;999.90;;;33.20;39.20;;;;;;5088262;28;20047;-71
2023/08/20 11:06:14;;;;;;;1999.90;999.90;;;33.40;39.00;;;;;;5087577;28;20047;-72
2023/08/20 11:08:41;;;;;;;1999.90;999.90;;;33.80;35.30;;;;;;5090909;28;20116;-71
2023/08/20 11:11:08;;;;;;;1999.90;999.90;;;33.90;38.20;;;;;;5083013;28;20036;-71
2023/08/20 11:13:35;;;;;;;1999.90;999.90;;;33.80;34.60;;;;;;5086853;28;20420;-71
2023/08/20 11:16:02;;;;;;;1999.90;999.90;;;34.10;34.20;;;;;;5086910;28;20040;-71
2023/08/20 11:18:29;;;;;;;1999.90;999.90;;;34.80;36.00;;;;;;5089898;28;20028;-72
2023/08/20 11:20:55;;;;;;;1999.90;999.90;;;35.50;31.90;;;;;;5089941;28;20032;-72
2023/08/20 11:23:22;;;;;;;1999.90;999.90;;;35.30;34.80;;;;;;5088602;28;20423;-72
2023/08/20 11:25:48;;;;;;;1999.90;999.90;;;35.40;31.20;;;;;;5088007;28;20040;-72
2023/08/20 11:28:13;;;;;;;1999.90;999.90;;;36.60;29.20;;;;;;5087219;28;20056;-72
2023/08/20 11:30:39;;;;;;;1999.90;999.90;;;36.70;29.10;;;;;;5099882;28;20031;-71
2023/08/20 11:33:05;;;;;;;1999.90;999.90;;;35.40;30.00;;;;;;5107278;28;20060;-71
2023/08/20 11:35:32;;;;;;;1999.90;999.90;;;35.50;31.20;;;;;;5102728;28;20043;-71
2023/08/20 11:37:58;;;;;;;1999.90;999.90;;;35.20;30.90;;;;;;5088439;28;20115;-71
2023/08/20 11:40:24;;;;;;;1999.90;999.90;;;35.70;31.70;;;;;;5087514;28;20063;-71
2023/08/20 11:42:50;;;;;;;1999.90;999.90;;;36.00;31.50;;;;;;5089908;28;20052;-71
2023/08/20 11:45:16;;;;;;;1999.90;999.90;;;35.90;30.40;;;;;;5082989;28;20028;-71
2023/08/20 11:47:42;;;;;;;1999.90;999.90;;;35.90;30.90;;;;;;5088937;28;20496;-71
2023/08/20 11:50:09;;;;;;;1999.90;999.90;;;36.40;31.10;;;;;;5089872;28;20047;-72
2023/08/20 11:52:36;;;;;;;1999.90;999.90;;;36.70;31.80;;;;;;5086386;28;20512;-72
2023/08/20 11:55:03;;;;;;;1999.90;999.90;;;36.40;29.20;;;;;;5083839;28;20050;-71
2023/08/20 11:57:29;;;;;;;1999.90;999.90;;;36.30;29.80;;;;;;5089547;28;20024;-72
2023/08/20 12:00:04;;;;;;;1999.90;999.90;;;37.00;28.70;;;;;;5089099;28;20032;-71